createdAt,value
2018-12-23T00:01:52.016Z,47.75
2018-12-23T00:04:20.108Z,48.37
2018-12-23T00:06:48.163Z,45.52
2018-12-23T00:09:16.239Z,43.52
2018-12-23T00:11:44.912Z,44.27
2018-12-23T00:14:12.599Z,46.23
2018-12-23T00:16:40.441Z,43.30
2018-12-23T00:19:08.180Z,41.18
2018-12-23T00:21:35.732Z,44.33
2018-12-23T00:24:03.053Z,42.30
2018-12-23T00:26:30.397Z,42.97
2018-12-23T00:28:57.711Z,42.05
2018-12-23T00:31:25.817Z,43.63
2018-12-23T00:33:53.245Z,44.45
2018-12-23T00:36:20.984Z,43.73
2018-12-23T00:38:48.367Z,39.53
2018-12-23T00:41:16.328Z,46.50
2018-12-23T00:43:44.009Z,47.10
2018-12-23T00:46:11.386Z,46.25
2018-12-23T00:48:39.142Z,42.63
2018-12-23T00:51:06.528Z,43.30
2018-12-23T00:53:33.892Z,47.80
2018-12-23T00:56:02.119Z,47.38
2018-12-23T00:58:29.784Z,51.20
2018-12-23T01:00:57.442Z,51.02
2018-12-23T01:03:24.967Z,45.40
2018-12-23T01:05:52.426Z,49.30
2018-12-23T01:08:19.936Z,53.73
2018-12-23T01:10:47.448Z,44.77
2018-12-23T01:13:15.449Z,42.15
2018-12-23T01:15:43.084Z,42.10
2018-12-23T01:18:10.724Z,42.50
2018-12-23T01:20:38.107Z,40.60
2018-12-23T01:23:05.792Z,36.33
2018-12-23T01:25:33.129Z,34.53
2018-12-23T01:28:01.430Z,39.42
2018-12-23T01:30:29.168Z,33.98
2018-12-23T01:32:56.601Z,34.80
2018-12-23T01:35:24.017Z,35.85
2018-12-23T01:37:51.707Z,35.43
2018-12-23T01:40:19.114Z,35.38
2018-12-23T01:42:46.828Z,36.98
2018-12-23T01:45:14.538Z,35.92
2018-12-23T01:47:42.132Z,32.13
2018-12-23T01:50:09.504Z,30.93
2018-12-23T01:52:37.197Z,31.97
2018-12-23T01:55:04.984Z,31.40
2018-12-23T01:57:33.273Z,27.82
2018-12-23T02:00:01.455Z,27.97
2018-12-23T02:02:29.110Z,29.60
2018-12-23T02:04:56.525Z,31.57
2018-12-23T02:07:23.885Z,32.88
2018-12-23T02:09:51.680Z,29.15
2018-12-23T02:12:20.281Z,27.15
2018-12-23T02:14:48.001Z,26.90
2018-12-23T02:17:15.347Z,26.30
2018-12-23T02:19:43.356Z,25.60
2018-12-23T02:22:10.897Z,24.30
2018-12-23T02:24:38.905Z,25.85
2018-12-23T02:27:09.320Z,27.27
2018-12-23T02:29:37.262Z,24.72
2018-12-23T02:32:04.941Z,22.27
2018-12-23T02:34:32.286Z,22.13
2018-12-23T02:36:59.977Z,23.10
2018-12-23T02:39:27.618Z,25.15
2018-12-23T02:41:55.386Z,23.25
2018-12-23T02:44:22.799Z,24.05
2018-12-23T02:46:50.480Z,26.52
2018-12-23T02:49:19.516Z,24.92
2018-12-23T02:51:47.168Z,25.65
2018-12-23T02:54:15.246Z,24.80
2018-12-23T02:56:42.685Z,26.15
2018-12-23T02:59:10.674Z,29.90
2018-12-23T03:01:38.632Z,28.62
2018-12-23T03:04:07.021Z,32.20
2018-12-23T03:06:34.788Z,29.85
2018-12-23T03:09:02.320Z,32.23
2018-12-23T03:11:29.689Z,32.45
2018-12-23T03:13:57.042Z,33.05
2018-12-23T03:16:24.687Z,32.75
2018-12-23T03:18:52.074Z,33.53
2018-12-23T03:21:19.737Z,32.28
2018-12-23T03:23:47.160Z,35.52
2018-12-23T03:26:14.549Z,34.00
2018-12-23T03:28:42.272Z,34.92
2018-12-23T03:31:10.184Z,36.20
2018-12-23T03:33:38.032Z,39.23
2018-12-23T03:36:14.782Z,37.93
2018-12-23T03:38:35.765Z,32.60
2018-12-23T03:41:03.910Z,31.80
2018-12-23T03:43:31.220Z,32.10
2018-12-23T03:45:58.593Z,32.28
2018-12-23T03:48:27.114Z,32.58
2018-12-23T03:50:55.065Z,32.67
2018-12-23T03:53:22.730Z,28.25
2018-12-23T03:55:50.697Z,29.02
2018-12-23T03:58:18.565Z,31.23
2018-12-23T04:00:46.224Z,30.20
2018-12-23T04:03:13.649Z,33.10
2018-12-23T04:05:41.353Z,29.82
2018-12-23T04:08:08.719Z,91.57
2018-12-23T04:10:36.108Z,30.23
2018-12-23T04:13:03.721Z,29.72
2018-12-23T04:15:31.625Z,26.33
2018-12-23T04:17:59.464Z,31.48
2018-12-23T04:20:26.812Z,32.88
2018-12-23T04:22:54.476Z,30.72
2018-12-23T04:25:22.118Z,31.85
2018-12-23T04:27:50.003Z,28.65
2018-12-23T04:30:17.450Z,30.57
2018-12-23T04:32:45.943Z,30.00
2018-12-23T04:35:13.521Z,28.95
2018-12-23T04:37:41.479Z,29.55
2018-12-23T04:40:09.196Z,27.67
2018-12-23T04:42:36.844Z,27.15
2018-12-23T04:45:04.605Z,26.23
2018-12-23T04:47:31.972Z,27.73
2018-12-23T04:49:59.385Z,29.18
2018-12-23T04:52:28.285Z,28.12
2018-12-23T04:54:56.537Z,27.13
2018-12-23T04:57:23.916Z,27.58
2018-12-23T04:59:51.345Z,24.77
2018-12-23T05:02:19.324Z,25.43
2018-12-23T05:04:46.657Z,26.60
2018-12-23T05:07:14.854Z,24.02
2018-12-23T05:09:42.209Z,28.98
2018-12-23T05:12:09.524Z,24.47
2018-12-23T05:14:36.837Z,26.33
2018-12-23T05:17:04.205Z,26.17
2018-12-23T05:19:32.041Z,28.85
2018-12-23T05:21:59.405Z,28.40
2018-12-23T05:24:26.778Z,24.87
2018-12-23T05:26:54.230Z,25.20
2018-12-23T05:29:22.177Z,29.72
2018-12-23T05:31:49.533Z,26.85
2018-12-23T05:34:16.885Z,28.10
2018-12-23T05:36:52.337Z,28.67
2018-12-23T05:39:14.366Z,27.53
2018-12-23T05:41:41.897Z,31.02
2018-12-23T05:44:09.250Z,24.05
2018-12-23T05:46:37.250Z,28.57
2018-12-23T05:49:05.117Z,25.88
2018-12-23T05:51:33.229Z,26.50
2018-12-23T05:54:01.225Z,26.15
2018-12-23T05:56:28.591Z,27.55
2018-12-23T05:58:56.358Z,25.62
2018-12-23T06:01:23.716Z,21.65
2018-12-23T06:03:51.086Z,29.80
2018-12-23T06:06:18.537Z,20.17
2018-12-23T06:08:45.976Z,19.57
2018-12-23T06:11:14.045Z,19.35
2018-12-23T06:13:41.701Z,21.82
2018-12-23T06:16:09.401Z,19.90
2018-12-23T06:18:36.765Z,22.48
2018-12-23T06:21:06.531Z,22.90
2018-12-23T06:23:33.862Z,24.12
2018-12-23T06:26:01.627Z,23.18
2018-12-23T06:28:29.101Z,23.18
2018-12-23T06:30:56.469Z,20.65
2018-12-23T06:33:24.362Z,22.97
2018-12-23T06:35:51.717Z,19.62
2018-12-23T06:38:19.389Z,21.55
2018-12-23T06:40:47.128Z,21.65
2018-12-23T06:43:14.816Z,23.52
2018-12-23T06:45:42.884Z,20.05
2018-12-23T06:48:10.757Z,24.43
2018-12-23T06:50:39.214Z,20.27
2018-12-23T06:53:06.624Z,20.95
2018-12-23T06:55:34.249Z,21.97
2018-12-23T06:58:01.618Z,25.75
2018-12-23T07:00:29.303Z,25.77
2018-12-23T07:02:56.806Z,25.45
2018-12-23T07:05:24.176Z,24.02
2018-12-23T07:07:51.512Z,26.43
2018-12-23T07:10:19.385Z,24.70
2018-12-23T07:12:47.377Z,25.62
2018-12-23T07:15:15.258Z,22.60
2018-12-23T07:17:42.628Z,26.93
2018-12-23T07:20:09.973Z,25.55
2018-12-23T07:22:37.635Z,23.75
2018-12-23T07:25:05.145Z,27.10
2018-12-23T07:27:32.535Z,21.95
2018-12-23T07:30:00.147Z,22.32
2018-12-23T07:32:27.960Z,21.50
2018-12-23T07:34:56.245Z,20.40
2018-12-23T07:37:27.514Z,19.67
2018-12-23T07:39:53.196Z,19.52
2018-12-23T07:42:21.033Z,17.10
2018-12-23T07:44:48.401Z,19.73
2018-12-23T07:47:16.503Z,17.45
2018-12-23T07:49:44.468Z,17.87
2018-12-23T07:52:12.303Z,16.73
2018-12-23T07:54:39.949Z,17.55
2018-12-23T07:57:07.393Z,15.23
2018-12-23T07:59:35.222Z,15.83
2018-12-23T08:02:04.487Z,14.35
2018-12-23T08:04:32.068Z,13.32
2018-12-23T08:06:59.983Z,13.78
2018-12-23T08:09:27.392Z,11.88
2018-12-23T08:11:54.712Z,16.40
2018-12-23T08:14:22.425Z,12.73
2018-12-23T08:16:50.086Z,10.53
2018-12-23T08:19:18.296Z,10.30
2018-12-23T08:21:45.666Z,10.08
2018-12-23T08:24:13.344Z,11.73
2018-12-23T08:26:41.055Z,7.90
2018-12-23T08:29:08.408Z,8.75
2018-12-23T08:31:35.845Z,6.08
2018-12-23T08:34:04.337Z,5.62
2018-12-23T08:36:31.861Z,12.23
2018-12-23T08:38:59.176Z,6.47
2018-12-23T08:41:27.728Z,6.10
2018-12-23T08:43:55.260Z,11.22
2018-12-23T08:46:22.701Z,10.00
2018-12-23T08:48:50.189Z,9.05
2018-12-23T08:51:17.625Z,11.33
2018-12-23T08:53:44.960Z,8.63
2018-12-23T08:56:12.512Z,12.70
2018-12-23T08:58:40.093Z,11.57
2018-12-23T09:01:07.471Z,14.00
2018-12-23T09:03:34.960Z,11.40
2018-12-23T09:06:02.568Z,12.58
2018-12-23T09:08:29.971Z,10.20
2018-12-23T09:10:57.395Z,15.58
2018-12-23T09:13:25.168Z,11.83
2018-12-23T09:15:52.957Z,13.10
2018-12-23T09:18:20.325Z,8.20
2018-12-23T09:20:47.718Z,8.45
2018-12-23T09:23:15.329Z,7.90
2018-12-23T09:25:42.893Z,6.50
2018-12-23T09:28:11.180Z,7.78
2018-12-23T09:30:38.938Z,9.50
2018-12-23T09:33:06.910Z,7.75
2018-12-23T09:35:34.884Z,5.25
2018-12-23T09:38:02.256Z,7.30
2018-12-23T09:40:29.658Z,6.53
2018-12-23T09:42:57.249Z,8.85
2018-12-23T09:45:24.577Z,10.28
2018-12-23T09:47:51.933Z,10.68
2018-12-23T09:50:19.297Z,12.18
2018-12-23T09:52:46.882Z,13.18
2018-12-23T09:55:14.314Z,15.78
2018-12-23T09:57:41.826Z,15.85
2018-12-23T10:00:09.222Z,16.60
2018-12-23T10:02:36.593Z,21.50
2018-12-23T10:05:04.776Z,22.02
2018-12-23T10:07:32.545Z,17.67
2018-12-23T10:10:00.392Z,16.62
2018-12-23T10:12:28.069Z,15.03
2018-12-23T10:14:55.837Z,21.48
2018-12-23T10:17:23.238Z,17.50
2018-12-23T10:19:51.282Z,23.25
2018-12-23T10:22:18.902Z,16.25
2018-12-23T10:24:47.257Z,16.80
2018-12-23T10:30:50.443Z,17.67
2018-12-23T10:33:19.998Z,20.27
2018-12-23T10:35:49.988Z,13.80
2018-12-23T10:38:20.491Z,16.48
2018-12-23T10:40:51.036Z,19.95
2018-12-23T10:43:20.403Z,14.98
2018-12-23T10:45:51.325Z,21.15
2018-12-23T10:48:21.568Z,17.73
2018-12-23T10:50:51.530Z,20.68
2018-12-23T10:53:21.520Z,17.05
2018-12-23T10:55:53.074Z,21.17
2018-12-23T10:58:22.052Z,15.97
2018-12-23T11:00:52.437Z,19.48
2018-12-23T11:03:22.447Z,19.15
2018-12-23T11:05:51.188Z,21.50
2018-12-23T11:08:26.710Z,19.55
2018-12-23T11:10:50.090Z,22.00
2018-12-23T11:13:18.774Z,20.05
2018-12-23T11:15:47.466Z,18.52
2018-12-23T11:18:16.546Z,16.37
2018-12-23T11:20:44.855Z,16.35
2018-12-23T11:23:13.835Z,17.77
2018-12-23T11:25:42.840Z,13.30
2018-12-23T11:28:11.151Z,19.42
2018-12-23T11:30:41.111Z,17.32
2018-12-23T11:33:09.699Z,17.63
2018-12-23T11:35:38.698Z,29.35
2018-12-23T11:38:06.951Z,18.10
2018-12-23T11:40:35.231Z,21.00
2018-12-23T11:43:03.585Z,13.45
2018-12-23T11:45:31.963Z,15.72
2018-12-23T11:48:00.369Z,19.95
2018-12-23T11:50:28.673Z,14.95
2018-12-23T11:52:56.979Z,16.77
2018-12-23T11:55:25.267Z,18.45
2018-12-23T11:57:53.576Z,12.95
2018-12-23T12:00:21.871Z,14.33
2018-12-23T12:02:50.718Z,14.50
2018-12-23T12:05:19.755Z,14.10
2018-12-23T12:07:48.167Z,13.75
2018-12-23T12:10:16.915Z,10.17
2018-12-23T12:12:45.270Z,12.37
2018-12-23T12:15:13.882Z,11.90
2018-12-23T12:17:42.154Z,12.80
2018-12-23T12:20:10.764Z,11.48
2018-12-23T12:22:41.178Z,8.00
2018-12-23T12:25:08.995Z,5.78
2018-12-23T12:27:37.335Z,7.80
2018-12-23T12:30:05.835Z,7.37
2018-12-23T12:32:34.470Z,9.20
2018-12-23T12:35:02.772Z,7.28
2018-12-23T12:37:31.091Z,15.80
2018-12-23T12:39:59.374Z,13.72
2018-12-23T12:42:28.014Z,14.55
2018-12-23T12:44:56.319Z,12.88
2018-12-23T12:47:24.915Z,11.22
2018-12-23T12:49:53.520Z,15.70
2018-12-23T12:52:21.830Z,12.73
2018-12-23T12:54:50.723Z,18.20
2018-12-23T12:57:19.027Z,11.40
2018-12-23T12:59:47.628Z,13.35
2018-12-23T13:02:16.280Z,15.25
2018-12-23T13:04:45.273Z,17.57
2018-12-23T13:07:13.566Z,18.82
2018-12-23T13:09:42.231Z,16.62
2018-12-23T13:12:10.926Z,21.10
2018-12-23T13:14:39.914Z,22.60
2018-12-23T13:17:08.200Z,20.40
2018-12-23T13:19:37.500Z,21.02
2018-12-23T13:22:06.561Z,17.27
2018-12-23T13:24:34.873Z,23.47
2018-12-23T13:27:03.239Z,17.85
2018-12-23T13:29:31.521Z,17.53
2018-12-23T13:31:59.916Z,25.08
2018-12-23T13:34:28.207Z,21.10
2018-12-23T13:36:59.938Z,17.65
2018-12-23T13:39:29.030Z,20.08
2018-12-23T13:42:34.530Z,25.68
2018-12-23T13:45:21.393Z,17.10
2018-12-23T13:48:06.776Z,19.30
2018-12-23T13:51:00.095Z,21.50
2018-12-23T13:53:43.303Z,19.23
2018-12-23T13:56:39.713Z,20.48
2018-12-23T13:59:19.008Z,17.23
2018-12-23T14:01:55.275Z,20.40
2018-12-23T14:04:48.972Z,20.52
2018-12-23T14:07:40.479Z,19.90
2018-12-23T14:10:30.940Z,23.52
2018-12-23T14:13:00.766Z,19.40
2018-12-23T14:15:29.283Z,21.93
2018-12-23T14:17:58.997Z,24.65
2018-12-23T14:20:27.444Z,26.70
2018-12-23T14:22:55.738Z,21.95
2018-12-23T14:25:24.049Z,26.65
2018-12-23T14:27:52.386Z,13.45
2018-12-23T14:30:20.683Z,13.32
2018-12-23T14:32:49.006Z,11.43
2018-12-23T14:35:18.622Z,8.05
2018-12-23T14:37:47.394Z,8.73
2018-12-23T14:40:15.783Z,6.70
2018-12-23T14:42:45.113Z,7.20
2018-12-23T14:45:13.931Z,11.05
2018-12-23T14:47:42.256Z,9.90
2018-12-23T14:50:12.191Z,8.35
2018-12-23T14:52:40.819Z,12.88
2018-12-23T14:55:09.538Z,17.23
2018-12-23T14:57:37.823Z,17.75
2018-12-23T15:00:06.706Z,18.62
2018-12-23T15:02:35.027Z,16.67
2018-12-23T15:05:03.354Z,24.70
2018-12-23T15:07:31.678Z,16.50
2018-12-23T15:10:00.298Z,24.35
2018-12-23T15:12:28.627Z,24.65
2018-12-23T15:14:56.966Z,18.17
2018-12-23T15:17:25.221Z,22.67
2018-12-23T15:19:53.583Z,20.55
2018-12-23T15:22:21.910Z,24.57
2018-12-23T15:24:50.216Z,18.07
2018-12-23T15:27:18.547Z,18.27
2018-12-23T15:29:47.252Z,20.05
2018-12-23T15:32:15.843Z,19.55
2018-12-23T15:34:44.486Z,18.70
2018-12-23T15:37:12.815Z,22.02
2018-12-23T15:39:42.750Z,19.73
2018-12-23T15:42:11.454Z,22.60
2018-12-23T15:44:39.797Z,24.30
2018-12-23T15:47:08.534Z,22.70
2018-12-23T15:49:36.826Z,22.80
2018-12-23T15:52:05.131Z,21.45
2018-12-23T15:54:34.293Z,19.48
2018-12-23T15:57:03.493Z,26.57
2018-12-23T15:59:32.183Z,25.37
2018-12-23T16:02:00.863Z,22.95
2018-12-23T16:04:29.554Z,22.45
2018-12-23T16:06:57.856Z,22.25
2018-12-23T16:09:26.151Z,17.05
2018-12-23T16:11:54.511Z,16.30
2018-12-23T16:14:22.809Z,15.32
2018-12-23T16:16:51.110Z,19.10
2018-12-23T16:19:19.411Z,16.67
2018-12-23T16:21:48.096Z,16.48
2018-12-23T16:24:16.373Z,12.97
2018-12-23T16:26:45.067Z,17.37
2018-12-23T16:29:13.675Z,12.23
2018-12-23T16:31:42.326Z,12.20
2018-12-23T16:34:11.107Z,10.47
2018-12-23T16:36:39.492Z,9.43
2018-12-23T16:39:08.114Z,14.18
2018-12-23T16:41:37.283Z,12.70
2018-12-23T16:44:05.579Z,10.50
2018-12-23T16:46:34.281Z,12.00
2018-12-23T16:49:02.606Z,11.18
2018-12-23T16:51:30.990Z,11.40
2018-12-23T16:54:00.000Z,10.45
2018-12-23T16:56:28.279Z,13.70
2018-12-23T16:58:56.855Z,8.95
2018-12-23T17:01:25.143Z,10.37
2018-12-23T17:03:53.463Z,13.35
2018-12-23T17:06:22.414Z,11.55
2018-12-23T17:08:51.091Z,9.20
2018-12-23T17:11:19.782Z,12.73
2018-12-23T17:13:48.074Z,13.05
2018-12-23T17:16:16.363Z,10.65
2018-12-23T17:18:44.695Z,14.23
2018-12-23T17:21:13.018Z,13.28
2018-12-23T17:23:41.336Z,9.55
2018-12-23T17:26:10.880Z,9.63
2018-12-23T17:28:39.166Z,9.50
2018-12-23T17:31:07.767Z,10.65
2018-12-23T17:33:36.208Z,12.53
2018-12-23T17:36:04.829Z,10.95
2018-12-23T17:38:33.563Z,9.40
2018-12-23T17:41:01.963Z,10.15
2018-12-23T17:43:30.390Z,11.50
2018-12-23T17:45:58.708Z,9.03
2018-12-23T17:48:27.306Z,10.08
2018-12-23T17:50:55.584Z,9.95
2018-12-23T17:53:23.934Z,10.38
2018-12-23T17:55:52.213Z,7.60
2018-12-23T17:58:20.834Z,8.78
2018-12-23T18:00:49.106Z,6.58
2018-12-23T18:03:17.419Z,8.63
2018-12-23T18:05:46.170Z,9.80
2018-12-23T18:08:14.445Z,7.90
2018-12-23T18:10:42.784Z,6.30
2018-12-23T18:13:12.200Z,10.67
2018-12-23T18:15:40.902Z,6.58
2018-12-23T18:18:09.232Z,8.40
2018-12-23T18:20:37.508Z,8.13
2018-12-23T18:23:05.824Z,7.60
2018-12-23T18:25:34.158Z,6.17
2018-12-23T18:28:02.815Z,6.70
2018-12-23T18:30:31.379Z,9.65
2018-12-23T18:32:59.723Z,13.20
2018-12-23T18:35:28.728Z,8.75
2018-12-23T18:37:57.360Z,11.18
2018-12-23T18:40:33.123Z,10.73
2018-12-23T18:42:56.664Z,14.05
2018-12-23T18:45:25.070Z,14.38
2018-12-23T18:47:53.420Z,11.03
2018-12-23T18:50:21.729Z,14.90
2018-12-23T18:52:51.481Z,12.53
2018-12-23T18:55:20.005Z,9.40
2018-12-23T18:57:49.314Z,13.43
2018-12-23T19:00:18.918Z,13.95
2018-12-23T19:02:48.994Z,13.15
2018-12-23T19:05:17.314Z,21.40
2018-12-23T19:07:47.154Z,23.65
2018-12-23T19:10:19.081Z,30.27
2018-12-23T19:13:05.586Z,19.15
2018-12-23T19:16:02.441Z,12.47
2018-12-23T19:18:52.544Z,10.35
2018-12-23T19:21:28.303Z,11.50
2018-12-23T19:24:18.675Z,10.82
2018-12-23T19:27:06.615Z,10.03
2018-12-23T19:29:57.418Z,12.70
2018-12-23T19:32:54.163Z,11.33
2018-12-23T19:35:35.549Z,11.60
2018-12-23T19:38:23.263Z,14.35
2018-12-23T19:41:09.065Z,13.25
2018-12-23T19:43:55.204Z,11.00
2018-12-23T19:46:41.763Z,10.63
2018-12-23T19:49:51.142Z,12.95
2018-12-23T19:52:27.260Z,10.68
2018-12-23T19:55:20.353Z,11.75
2018-12-23T19:57:55.711Z,13.80
2018-12-23T20:00:35.927Z,12.23
2018-12-23T20:03:10.211Z,13.62
2018-12-23T20:06:07.197Z,12.43
2018-12-23T20:09:12.964Z,12.10
2018-12-23T20:11:58.445Z,14.67
2018-12-23T20:14:47.575Z,12.33
2018-12-23T20:17:43.699Z,13.60
2018-12-23T20:20:29.999Z,12.23
2018-12-23T20:23:21.311Z,11.03
2018-12-23T20:26:17.701Z,13.15
2018-12-23T20:29:23.526Z,13.53
2018-12-23T20:32:13.528Z,13.40
2018-12-23T20:35:00.897Z,13.25
2018-12-23T20:37:37.449Z,11.48
2018-12-23T20:40:34.007Z,13.85
2018-12-23T20:43:13.915Z,14.40
2018-12-23T20:46:10.761Z,11.90
2018-12-23T20:48:51.840Z,31.87
2018-12-23T20:51:30.507Z,11.78
2018-12-23T20:54:02.521Z,10.57
2018-12-23T20:56:52.935Z,7.53
2018-12-23T20:59:40.744Z,5.55
2018-12-23T21:02:28.498Z,5.70
2018-12-23T21:05:32.083Z,5.20
2018-12-23T21:08:18.456Z,4.97
2018-12-23T21:11:15.970Z,6.40
2018-12-23T21:14:01.146Z,7.40
2018-12-23T21:16:37.431Z,8.23
2018-12-23T21:19:18.022Z,5.55
2018-12-23T21:21:55.806Z,5.10
2018-12-23T21:24:58.600Z,6.00
2018-12-23T21:27:44.788Z,4.50
2018-12-23T21:30:31.382Z,5.00
2018-12-23T21:33:24.807Z,5.30
2018-12-23T21:36:12.123Z,5.33
2018-12-23T21:39:18.219Z,5.72
2018-12-23T21:41:55.850Z,7.10
2018-12-23T21:44:49.480Z,10.15
2018-12-23T21:47:45.976Z,15.37
2018-12-23T21:50:36.327Z,13.80
2018-12-23T21:53:32.746Z,12.73
2018-12-23T21:56:18.778Z,7.90
2018-12-23T21:59:18.024Z,13.90
2018-12-23T22:02:01.434Z,15.55
2018-12-23T22:04:47.364Z,13.00
2018-12-23T22:07:34.679Z,14.00
2018-12-23T22:10:16.422Z,12.18
2018-12-23T22:13:02.433Z,11.03
2018-12-23T22:15:31.151Z,11.08
2018-12-23T22:17:59.439Z,10.15
2018-12-23T22:20:28.029Z,10.32
2018-12-23T22:22:58.363Z,13.80
2018-12-23T22:25:26.322Z,15.43
2018-12-23T22:27:55.399Z,21.85
2018-12-23T22:30:23.711Z,23.92
2018-12-23T22:32:52.234Z,10.30
2018-12-23T22:35:20.799Z,11.80
2018-12-23T22:37:49.259Z,10.23
2018-12-23T22:40:18.014Z,9.30
2018-12-23T22:42:46.655Z,7.97
2018-12-23T22:45:14.982Z,8.00
2018-12-23T22:47:43.578Z,9.60
2018-12-23T22:50:12.119Z,8.70
2018-12-23T22:52:40.686Z,9.13
2018-12-23T22:55:09.246Z,9.00
2018-12-23T22:57:37.817Z,9.30
2018-12-23T23:00:06.826Z,8.10
2018-12-23T23:02:35.144Z,8.08
2018-12-23T23:05:03.443Z,5.97
2018-12-23T23:07:32.439Z,5.00
2018-12-23T23:10:01.016Z,6.50
2018-12-23T23:12:29.297Z,4.40
2018-12-23T23:14:57.646Z,4.17
2018-12-23T23:17:25.978Z,4.58
2018-12-23T23:19:54.242Z,4.40
2018-12-23T23:22:22.945Z,4.30
2018-12-23T23:24:51.596Z,5.10
2018-12-23T23:27:21.195Z,4.08
2018-12-23T23:29:49.759Z,4.30
2018-12-23T23:32:18.032Z,4.10
2018-12-23T23:34:47.364Z,3.90
2018-12-23T23:37:15.960Z,3.70
2018-12-23T23:39:44.735Z,4.22
2018-12-23T23:42:13.346Z,5.30
2018-12-23T23:44:41.631Z,4.30
2018-12-23T23:47:09.951Z,3.70
2018-12-23T23:49:38.678Z,4.30
2018-12-23T23:52:07.067Z,4.58
2018-12-23T23:54:35.735Z,5.10
2018-12-23T23:57:04.023Z,5.20
2018-12-23T23:59:32.359Z,5.05
